メインページ
METAR-TAF:

METAR-TAF

空港 :

High Level, アルバータ州, カナダ

緯度: 58-37N, 経度: 117-10W, 海抜: 338m

現時点の気象観測

当レポートは35分前の02:00(UTC)に作成
北/北西の風 5kt
気温 -17°C
湿度 92%
気圧 1011 hPa
視程: 24.1km
高度3500ftの千切れ雲あり

METAR: CYOJ 070200Z 34005KT 15SM BKN035 M17/M18 A2986 RMK SC5 SLP148

時間: 19:35 (02:35 UTC)

予報

当レポートは1時間57分前の00:38(UTC)に作成
予報は07日の 01時(UTC)から 07日の 13時(UTC)まで有効
の風 5kt
視程: 10km
高度2000ftの雲はほとんどない
高度4000ftの千切れ雲あり
07日の 01時(UTC)から 07日の 08時(UTC)まで一時的に
視程: 8.0km
高度800ftの雲はほとんどない
高度2000ftの千切れ雲あり
高度4000ftの千切れ雲あり
小雪
07日の 02時(UTC)から 07日の 04時(UTC)まで徐々に
北/北西の風 10kt
07日の 0800時(UTC)から
北/北西の風 10kt
視程: 10km
高度1000ftの雲はほとんどない
高度6000ftの雲はほとんどない

TAF: CYOJ 070038Z 0701/0713 36005KT P6SM FEW020 BKN040 TEMPO 0701/0708 5SM -SN FEW008 BKN020 BKN040 BECMG 0702/0704 34010KT FM070800 34010KT P6SM FEW010 FEW060 RMK NXT FCST BY 070700Z

4,000以上の空港の気象観測と天気予報(METAR報とTAF報)

利用可能な観測所は地図上に黄色い丸と赤い丸で示す。

丸の上にカーソルを重ねると観測所名を参照できる。

次にクリックすると気象観測と天気予報を参照できる。

マップの切り替え:黒色「×」印の緑ボタンをクリックして拡大、「-」印の緑ボタンをクリックして縮小、緑色の三角印をクリックして隣りの地図に切り替え


METAR-TAF: